Time;durP1;ratioP1;P1;durP2;ratioP2;P2;SDS_P1;SDS_P2;PMS_P1;PMS_P2;Temp;Humidity;BMP_temperature;BMP_pressure;BME280_temperature;BME280_humidity;BME280_pressure;Samples;Min_cycle;Max_cycle;Signal;HPM_P1;HPM_P2
2023/04/23 00:01:51;;;;;;;11.77;3.03;;;;;;;18.82;83.57;98324.63;7392852;19;20022;-88
2023/04/23 00:04:19;;;;;;;5.85;2.92;;;;;;;17.76;90.71;98319.09;7390125;19;20021;-88
2023/04/23 00:06:46;;;;;;;7.97;2.15;;;;;;;17.79;94.27;98318.00;7391716;19;20035;-86
2023/04/23 00:09:15;;;;;;;3.38;2.33;;;;;;;17.65;95.78;98313.84;7391371;19;20013;-87
2023/04/23 00:11:41;;;;;;;10.43;4.05;;;;;;;18.01;93.89;98311.63;7392324;19;20027;-87
2023/04/23 00:14:08;;;;;;;2.00;1.73;;;;;;;18.22;91.85;98310.63;7393205;19;20018;-87
2023/04/23 00:16:34;;;;;;;9.95;2.97;;;;;;;19.74;82.93;98303.84;7388532;19;20011;-88
2023/04/23 00:19:00;;;;;;;9.40;2.05;;;;;;;19.62;80.87;98314.13;7392038;19;20469;-85
2023/04/23 00:21:27;;;;;;;8.57;3.20;;;;;;;19.53;82.18;98311.91;7393090;19;20022;-87
2023/04/23 00:23:53;;;;;;;10.57;2.80;;;;;;;20.01;74.86;98307.56;7393440;19;20010;-86
2023/04/23 00:26:19;;;;;;;4.88;2.80;;;;;;;20.22;74.45;98305.19;7389851;19;20389;-88
2023/04/23 00:28:45;;;;;;;13.35;4.38;;;;;;;19.32;79.83;98298.06;7391001;19;20375;-87
2023/04/23 00:31:11;;;;;;;7.97;2.58;;;;;;;19.40;80.60;98301.63;7395269;19;20014;-88
2023/04/23 00:33:38;;;;;;;7.70;4.05;;;;;;;21.30;66.90;98289.97;7397759;19;20408;-87
2023/04/23 00:36:05;;;;;;;11.35;4.10;;;;;;;21.47;67.82;98300.50;7401636;19;20134;-86
2023/04/23 00:38:31;;;;;;;6.32;3.03;;;;;;;21.49;66.76;98295.75;7408353;19;20023;-86
2023/04/23 00:40:58;;;;;;;10.50;3.22;;;;;;;22.06;64.04;98288.84;7402669;19;20108;-87
2023/04/23 00:43:24;;;;;;;3.70;2.85;;;;;;;23.05;60.08;98291.34;7408605;19;20133;-87
2023/04/23 00:45:50;;;;;;;8.80;3.75;;;;;;;23.43;58.58;98285.63;7406867;19;20015;-86
2023/04/23 00:48:17;;;;;;;13.77;3.95;;;;;;;25.25;53.94;98282.34;7404762;19;20029;-87
2023/04/23 00:50:43;;;;;;;3.83;2.35;;;;;;;27.18;47.90;98270.53;7404975;19;20074;-86
2023/04/23 00:53:09;;;;;;;6.63;2.53;;;;;;;27.63;46.54;98268.06;7409852;19;20014;-87
2023/04/23 00:55:35;;;;;;;6.35;3.72;;;;;;;28.09;44.38;98266.97;7405069;19;20050;-87
2023/04/23 00:58:02;;;;;;;17.25;3.80;;;;;;;28.35;42.97;98260.47;7403077;19;20014;-87
2023/04/23 01:00:28;;;;;;;7.90;3.47;;;;;;;27.78;43.59;98264.59;7403042;19;20089;-87
2023/04/23 01:02:56;;;;;;;9.98;3.65;;;;;;;27.93;43.23;98255.38;7406224;19;20410;-87
2023/04/23 01:05:23;;;;;;;12.50;5.60;;;;;;;27.99;42.59;98258.59;7404197;19;20010;-87
2023/04/23 01:07:50;;;;;;;12.38;3.55;;;;;;;27.50;42.74;98255.22;7405349;19;20029;-88
2023/04/23 01:10:16;;;;;;;5.13;3.25;;;;;;;22.08;53.16;98255.72;7403854;19;20477;-87
2023/04/23 01:12:42;;;;;;;14.07;3.50;;;;;;;21.27;58.01;98259.28;7407160;19;20070;-85
2023/04/23 01:15:09;;;;;;;5.32;4.07;;;;;;;21.01;60.20;98255.78;7405266;19;20037;-87
2023/04/23 01:17:35;;;;;;;10.88;3.92;;;;;;;22.92;56.28;98243.53;7403223;19;20337;-87
2023/04/23 01:20:03;;;;;;;13.73;3.17;;;;;;;22.81;54.95;98241.28;7407223;19;20014;-87
2023/04/23 01:22:34;;;;;;;15.13;3.97;;;;;;;24.21;52.26;98232.75;7403935;19;20018;-87
2023/04/23 01:25:01;;;;;;;5.40;3.05;;;;;;;25.34;49.72;98235.91;7400718;19;20029;-87
2023/04/23 01:27:28;;;;;;;9.30;3.67;;;;;;;24.01;51.72;98240.63;7404559;19;20017;-87
2023/04/23 01:29:55;;;;;;;6.95;3.83;;;;;;;24.49;50.65;98231.78;7406467;19;20476;-87
2023/04/23 01:32:21;;;;;;;8.50;4.43;;;;;;;23.14;53.03;98239.44;7406113;19;20010;-86
2023/04/23 01:34:48;;;;;;;7.85;2.75;;;;;;;20.24;60.95;98242.38;7402389;19;20026;-87
2023/04/23 01:37:16;;;;;;;7.30;2.85;;;;;;;19.98;66.57;98237.34;7402803;19;20405;-87
2023/04/23 01:39:42;;;;;;;8.30;3.47;;;;;;;18.95;74.13;98242.56;7402099;19;20035;-87
2023/04/23 01:42:08;;;;;;;6.07;2.78;;;;;;;19.60;71.94;98238.41;7403130;19;20028;-85
2023/04/23 01:44:34;;;;;;;8.80;4.55;;;;;;;20.04;69.83;98235.78;7402695;19;20006;-86
2023/04/23 01:47:01;;;;;;;7.10;2.97;;;;;;;20.15;68.90;98238.13;7404161;19;20010;-86
2023/04/23 01:49:27;;;;;;;14.20;4.45;;;;;;;20.00;68.58;98246.00;7393289;19;20019;-87
2023/04/23 01:51:53;;;;;;;11.70;3.78;;;;;;;19.29;71.97;98237.13;7393138;19;20034;-86
2023/04/23 01:54:19;;;;;;;7.65;3.80;;;;;;;18.77;78.15;98232.53;7390517;19;20018;-86
2023/04/23 01:56:53;;;;;;;10.23;3.00;;;;;;;18.86;77.56;98229.09;7390204;19;20512;-86
2023/04/23 01:59:21;;;;;;;7.38;3.00;;;;;;;18.37;83.51;98226.81;7391014;19;20014;-86
2023/04/23 02:01:48;;;;;;;11.52;3.78;;;;;;;18.46;84.52;98225.50;7392913;19;20544;-86
2023/04/23 02:04:16;;;;;;;8.05;3.15;;;;;;;17.87;88.85;98228.59;7393729;19;20025;-86
2023/04/23 02:06:46;;;;;;;8.32;2.45;;;;;;;18.63;84.31;98229.19;7392672;19;20014;-86
2023/04/23 02:09:12;;;;;;;10.25;3.33;;;;;;;18.03;88.92;98234.97;7396034;19;20134;-86
2023/04/23 02:11:38;;;;;;;4.20;3.22;;;;;;;17.07;96.70;98232.28;7396583;19;20022;-86
2023/04/23 02:14:05;;;;;;;6.75;3.83;;;;;;;17.24;97.26;98226.88;7396829;19;20028;-85
2023/04/23 02:16:31;;;;;;;4.03;2.70;;;;;;;17.98;93.24;98219.00;7394711;19;20634;-86
2023/04/23 02:18:57;;;;;;;6.00;3.67;;;;;;;18.19;92.05;98217.47;7397448;19;20018;-86
2023/04/23 02:21:27;;;;;;;7.15;3.72;;;;;;;19.38;84.91;98219.56;7397550;19;20011;-87
2023/04/23 02:23:53;;;;;;;5.50;3.90;;;;;;;17.94;91.75;98227.84;7397057;19;20038;-86
2023/04/23 02:26:21;;;;;;;4.57;2.58;;;;;;;17.91;93.44;98226.16;7394464;19;20026;-86
2023/04/23 02:28:47;;;;;;;7.65;3.03;;;;;;;18.98;85.13;98224.50;7395288;19;20022;-85
2023/04/23 02:31:15;;;;;;;5.07;3.80;;;;;;;22.53;67.86;98220.84;7393762;19;20081;-85
2023/04/23 02:33:41;;;;;;;7.50;3.47;;;;;;;19.19;77.68;98221.38;7395238;19;20627;-85
2023/04/23 02:36:09;;;;;;;7.47;2.08;;;;;;;18.80;84.75;98223.66;7390804;19;20014;-86
2023/04/23 02:38:35;;;;;;;3.50;2.95;;;;;;;20.36;74.83;98217.94;7393198;19;20045;-85
2023/04/23 02:41:01;;;;;;;6.05;3.13;;;;;;;20.85;71.12;98219.81;7393319;19;20033;-85
2023/04/23 02:43:28;;;;;;;4.78;3.40;;;;;;;18.99;82.14;98220.38;7393507;19;20038;-86
2023/04/23 02:45:54;;;;;;;10.93;4.13;;;;;;;18.85;81.74;98217.06;7396174;19;20014;-85
2023/04/23 02:48:21;;;;;;;6.45;3.67;;;;;;;19.73;78.64;98214.03;7392907;19;20347;-84
2023/04/23 02:50:47;;;;;;;12.50;3.22;;;;;;;23.53;64.94;98203.91;7394399;19;20022;-85
2023/04/23 02:53:13;;;;;;;11.85;5.53;;;;;;;27.65;49.13;98203.13;7398758;19;20019;-86
2023/04/23 02:55:39;;;;;;;7.18;3.15;;;;;;;30.46;41.78;98197.31;7392082;19;20018;-86
2023/04/23 02:58:06;;;;;;;7.35;3.72;;;;;;;30.81;39.38;98203.09;7391433;19;20014;-86
2023/04/23 03:00:34;;;;;;;6.57;2.38;;;;;;;31.05;37.92;98198.34;7388721;19;20022;-85
2023/04/23 03:03:00;;;;;;;4.15;2.50;;;;;;;31.46;37.06;98199.94;7394657;19;20018;-85
2023/04/23 03:05:26;;;;;;;15.27;2.60;;;;;;;31.41;36.08;98194.03;7390522;19;20035;-85
2023/04/23 03:07:52;;;;;;;9.88;3.67;;;;;;;31.62;35.87;98201.28;7393176;19;20326;-86
2023/04/23 03:10:18;;;;;;;6.78;3.05;;;;;;;31.62;35.03;98194.78;7392941;19;20015;-85
2023/04/23 03:12:45;;;;;;;6.78;1.63;;;;;;;32.32;34.18;98203.13;7397900;19;20021;-86
2023/04/23 03:15:11;;;;;;;7.13;3.40;;;;;;;32.35;33.25;98193.16;7393636;19;20014;-86
2023/04/23 03:17:37;;;;;;;3.22;2.25;;;;;;;31.36;33.86;98192.34;7389999;19;20022;-85
2023/04/23 03:20:07;;;;;;;4.43;1.77;;;;;;;32.27;32.90;98187.09;7394922;19;20665;-86
2023/04/23 03:22:34;;;;;;;5.60;2.67;;;;;;;32.35;32.47;98196.03;7393820;19;20010;-85
2023/04/23 03:25:01;;;;;;;4.65;2.22;;;;;;;31.75;33.20;98194.56;7390667;19;20019;-86
2023/04/23 03:27:27;;;;;;;2.58;2.40;;;;;;;32.04;32.84;98196.34;7392798;19;20082;-86
2023/04/23 03:29:54;;;;;;;6.38;2.25;;;;;;;32.08;32.33;98194.38;7392556;19;20010;-86
2023/04/23 03:32:20;;;;;;;2.88;2.47;;;;;;;32.29;32.33;98187.19;7394302;19;20067;-86
2023/04/23 03:34:46;;;;;;;4.65;1.98;;;;;;;32.46;31.81;98189.22;7391674;19;20018;-86
2023/04/23 03:37:12;;;;;;;12.25;2.80;;;;;;;32.33;31.78;98184.44;7389710;19;20015;-86
2023/04/23 03:39:39;;;;;;;7.25;3.08;;;;;;;32.00;32.37;98182.56;7388440;19;20014;-86
2023/04/23 03:42:06;;;;;;;3.28;2.03;;;;;;;32.05;32.46;98183.44;7390940;19;20019;-86
2023/04/23 03:44:32;;;;;;;5.10;2.15;;;;;;;32.17;31.70;98184.59;7390264;19;20473;-86
2023/04/23 03:46:58;;;;;;;10.65;2.80;;;;;;;31.83;32.22;98185.50;7391081;19;20018;-86
2023/04/23 03:49:26;;;;;;;4.05;1.70;;;;;;;31.83;32.02;98180.47;7393059;19;20014;-86
2023/04/23 03:51:54;;;;;;;4.45;1.65;;;;;;;31.89;32.18;98171.31;7393388;19;20010;-86
2023/04/23 03:54:22;;;;;;;1.40;1.25;;;;;;;32.11;31.73;98178.63;7392069;19;20011;-86
2023/04/23 03:57:02;;;;;;;7.50;2.25;;;;;;;31.69;31.98;98182.81;7391757;19;20369;-86
2023/04/23 03:59:34;;;;;;;3.80;1.52;;;;;;;31.87;31.90;98179.88;7392543;19;20010;-86
2023/04/23 04:02:03;;;;;;;5.72;2.15;;;;;;;32.01;31.79;98177.53;7395263;19;20022;-86
2023/04/23 04:04:32;;;;;;;4.32;2.50;;;;;;;32.05;31.34;98184.16;7390260;19;20018;-86
2023/04/23 04:07:02;;;;;;;7.70;2.67;;;;;;;32.07;31.56;98180.63;7391438;19;20018;-86
2023/04/23 04:09:28;;;;;;;5.03;2.25;;;;;;;32.10;31.32;98174.28;7390302;19;20736;-86
2023/04/23 04:11:55;;;;;;;2.13;1.70;;;;;;;31.60;31.53;98168.81;7389795;19;20007;-86
2023/04/23 04:14:21;;;;;;;7.80;3.08;;;;;;;31.94;31.40;98170.06;7393729;19;20019;-86
2023/04/23 04:16:48;;;;;;;11.07;3.05;;;;;;;31.98;31.29;98173.84;7391725;19;20018;-86
2023/04/23 04:19:15;;;;;;;3.47;1.45;;;;;;;31.98;30.63;98167.34;7393480;19;20015;-86
2023/04/23 04:21:41;;;;;;;3.47;2.63;;;;;;;32.14;31.10;98167.91;7393325;19;20425;-86
2023/04/23 04:24:07;;;;;;;6.70;3.13;;;;;;;32.06;31.08;98167.63;7391922;19;20011;-87
2023/04/23 04:26:33;;;;;;;6.93;2.17;;;;;;;32.16;30.84;98165.13;7390764;19;20078;-86
2023/04/23 04:29:00;;;;;;;11.05;3.83;;;;;;;32.23;30.81;98158.13;7392936;19;20022;-86
2023/04/23 04:31:27;;;;;;;2.92;2.63;;;;;;;32.11;31.06;98158.47;7392068;19;20010;-86
2023/04/23 04:33:57;;;;;;;7.15;2.58;;;;;;;32.26;30.56;98156.81;7390995;19;20025;-85
2023/04/23 04:36:25;;;;;;;3.10;2.00;;;;;;;32.32;30.54;98151.25;7392494;19;20015;-85
2023/04/23 04:38:54;;;;;;;5.05;1.73;;;;;;;32.40;30.31;98154.38;7388413;19;20074;-86
2023/04/23 04:41:24;;;;;;;2.97;1.85;;;;;;;32.36;30.28;98157.16;7388382;19;20380;-86
2023/04/23 04:43:51;;;;;;;5.15;2.05;;;;;;;31.97;30.83;98157.22;7390327;19;20044;-86
2023/04/23 04:46:20;;;;;;;6.07;2.80;;;;;;;32.09;30.74;98154.78;7389958;19;20019;-86
2023/04/23 04:48:47;;;;;;;11.88;4.97;;;;;;;31.65;30.75;98159.66;7390134;19;20010;-84
2023/04/23 04:51:13;;;;;;;9.90;3.40;;;;;;;31.99;30.77;98158.03;7390421;19;20390;-86
2023/04/23 04:53:39;;;;;;;10.02;3.88;;;;;;;31.95;30.54;98154.28;7388788;19;20709;-83
2023/04/23 04:56:05;;;;;;;4.53;3.03;;;;;;;32.12;30.60;98159.19;7387829;19;20390;-82
2023/04/23 04:58:31;;;;;;;16.77;2.95;;;;;;;32.12;30.50;98159.19;7386595;19;20086;-83
2023/04/23 05:00:58;;;;;;;12.73;2.70;;;;;;;32.18;30.46;98157.25;7387101;19;20022;-83
2023/04/23 05:03:25;;;;;;;3.83;2.35;;;;;;;32.24;30.44;98158.88;7392038;19;20025;-84
2023/04/23 05:05:55;;;;;;;7.68;2.53;;;;;;;32.26;30.57;98167.59;7388019;19;20029;-83
2023/04/23 05:08:21;;;;;;;2.97;1.65;;;;;;;32.23;30.20;98168.94;7388001;19;20038;-83
2023/04/23 05:10:49;;;;;;;6.20;2.13;;;;;;;32.11;30.43;98167.13;7389864;19;20370;-83
2023/04/23 05:13:16;;;;;;;2.22;1.27;;;;;;;32.29;30.18;98161.25;7394917;19;20043;-83
2023/04/23 05:15:42;;;;;;;16.67;4.03;;;;;;;32.34;30.32;98165.72;7392523;19;20362;-83
2023/04/23 05:18:09;;;;;;;9.50;2.97;;;;;;;32.30;30.16;98162.72;7387903;19;20015;-83
2023/04/23 05:20:36;;;;;;;10.73;4.32;;;;;;;32.29;30.46;98172.78;7392088;19;20022;-83
2023/04/23 05:23:03;;;;;;;8.00;1.83;;;;;;;32.25;30.16;98166.84;7391435;19;20026;-83
2023/04/23 05:25:29;;;;;;;6.40;1.90;;;;;;;32.14;30.32;98182.31;7394457;19;20043;-83
2023/04/23 05:27:56;;;;;;;7.45;2.47;;;;;;;32.13;30.20;98172.19;7395775;19;20018;-83
2023/04/23 05:30:23;;;;;;;6.40;3.10;;;;;;;32.06;30.37;98170.50;7395595;19;20082;-83
2023/04/23 05:32:49;;;;;;;8.02;3.15;;;;;;;24.88;35.89;98193.09;7400576;19;20027;-83
2023/04/23 05:35:15;;;;;;;9.88;4.00;;;;;;;12.17;100.00;98208.34;7394107;19;20019;-83
2023/04/23 05:37:41;;;;;;;6.57;2.17;;;;;;;10.01;100.00;98215.59;7392354;19;20022;-82
2023/04/23 05:40:08;;;;;;;12.98;3.67;;;;;;;9.16;100.00;98216.28;7394270;19;20014;-82
2023/04/23 05:42:35;;;;;;;14.88;3.78;;;;;;;8.69;100.00;98220.03;7395553;19;20018;-82
2023/04/23 05:45:02;;;;;;;4.15;2.38;;;;;;;8.37;100.00;98218.72;7397631;19;20014;-82
2023/04/23 05:47:28;;;;;;;6.63;2.65;;;;;;;8.20;100.00;98215.09;7394265;19;20014;-83
2023/04/23 05:49:56;;;;;;;11.57;3.17;;;;;;;8.04;100.00;98213.78;7394436;19;20007;-83
2023/04/23 05:52:23;;;;;;;12.35;3.90;;;;;;;7.95;100.00;98221.56;7396048;19;20016;-83
2023/04/23 05:54:50;;;;;;;10.00;3.15;;;;;;;7.88;100.00;98213.72;7394671;19;20022;-83
2023/04/23 05:57:17;;;;;;;10.00;3.75;;;;;;;7.82;100.00;98218.50;7391306;19;20367;-83
2023/04/23 05:59:43;;;;;;;7.40;3.67;;;;;;;7.79;100.00;98230.56;7392949;19;20022;-82
2023/04/23 06:02:09;;;;;;;5.22;3.42;;;;;;;7.77;100.00;98216.44;7393334;19;20365;-83
2023/04/23 06:04:36;;;;;;;8.55;3.60;;;;;;;7.76;100.00;98221.22;7391140;19;20018;-83
2023/04/23 06:07:02;;;;;;;5.80;3.63;;;;;;;7.77;100.00;98227.53;7396343;19;20010;-82
2023/04/23 06:09:28;;;;;;;9.63;4.00;;;;;;;7.90;100.00;98227.84;7396659;19;20352;-82
2023/04/23 06:11:55;;;;;;;5.60;2.10;;;;;;;7.80;100.00;98226.50;7397335;19;20019;-83
2023/04/23 06:14:21;;;;;;;7.85;4.43;;;;;;;9.51;100.00;98224.06;7397177;19;20049;-82
2023/04/23 06:16:47;;;;;;;9.55;3.72;;;;;;;8.53;100.00;98220.78;7393376;19;20346;-83
2023/04/23 06:19:13;;;;;;;4.28;2.78;;;;;;;8.04;100.00;98219.34;7397120;19;20014;-83
2023/04/23 06:21:39;;;;;;;10.95;2.17;;;;;;;7.98;100.00;98215.00;7395462;19;20022;-84
2023/04/23 06:24:06;;;;;;;5.13;4.03;;;;;;;8.23;100.00;98214.09;7393533;19;20354;-84
2023/04/23 06:26:33;;;;;;;7.63;2.60;;;;;;;8.09;100.00;98229.69;7393680;19;20011;-83
2023/04/23 06:29:05;;;;;;;12.43;4.68;;;;;;;7.93;100.00;98229.59;7393177;19;20018;-84
2023/04/23 06:31:36;;;;;;;7.88;4.60;;;;;;;7.91;100.00;98227.34;7394245;19;20010;-83
2023/04/23 06:34:02;;;;;;;16.00;4.00;;;;;;;8.02;100.00;98223.84;7395142;19;20018;-84
2023/04/23 06:36:28;;;;;;;5.72;4.05;;;;;;;7.95;100.00;98229.88;7391857;19;20015;-84
2023/04/23 06:38:54;;;;;;;14.57;4.78;;;;;;;7.94;100.00;98231.13;7391971;19;20366;-83
2023/04/23 06:41:21;;;;;;;12.32;3.85;;;;;;;7.95;100.00;98232.66;7394026;19;20014;-84
2023/04/23 06:43:55;;;;;;;9.10;3.38;;;;;;;7.94;100.00;98225.59;7391728;19;20022;-84
2023/04/23 06:46:31;;;;;;;16.63;3.90;;;;;;;7.98;100.00;98229.66;7391239;19;20040;-84
2023/04/23 06:48:57;;;;;;;8.48;3.40;;;;;;;8.07;100.00;98234.22;7392976;19;20007;-83
2023/04/23 06:51:27;;;;;;;11.65;3.75;;;;;;;8.15;100.00;98229.69;7393748;19;20025;-83
2023/04/23 06:53:53;;;;;;;7.68;3.92;;;;;;;8.31;100.00;98226.28;7393164;19;20026;-84
2023/04/23 06:56:20;;;;;;;13.80;4.00;;;;;;;8.37;100.00;98224.25;7389646;19;20014;-83
2023/04/23 06:58:46;;;;;;;12.98;5.68;;;;;;;8.54;100.00;98227.84;7392111;19;20150;-83
2023/04/23 07:01:18;;;;;;;11.32;5.28;;;;;;;8.55;100.00;98218.25;7391127;19;20347;-84
2023/04/23 07:03:47;;;;;;;8.82;4.22;;;;;;;8.59;100.00;98226.34;7391849;19;20023;-84
2023/04/23 07:06:17;;;;;;;4.45;2.22;;;;;;;9.66;100.00;98234.91;7392027;19;20078;-84
2023/04/23 07:08:44;;;;;;;9.38;4.40;;;;;;;10.44;100.00;98218.72;7393719;19;20014;-83
2023/04/23 07:11:10;;;;;;;11.68;4.07;;;;;;;9.27;100.00;98220.34;7391332;19;20481;-83
2023/04/23 07:13:37;;;;;;;6.25;3.88;;;;;;;10.14;100.00;98220.63;7393026;19;20015;-83
2023/04/23 07:16:03;;;;;;;11.20;5.03;;;;;;;9.36;100.00;98225.59;7396334;19;20011;-84
2023/04/23 07:18:29;;;;;;;10.73;3.47;;;;;;;11.06;100.00;98228.94;7388924;19;20025;-84
2023/04/23 07:20:55;;;;;;;8.68;4.22;;;;;;;9.00;100.00;98224.63;7389019;19;20011;-84
2023/04/23 07:23:22;;;;;;;5.95;3.40;;;;;;;8.84;100.00;98234.44;7394069;19;20031;-84
2023/04/23 07:25:48;;;;;;;8.57;3.33;;;;;;;8.78;100.00;98230.91;7390182;19;20018;-82
2023/04/23 07:28:14;;;;;;;7.50;3.67;;;;;;;8.81;100.00;98234.69;7391028;19;20024;-83
2023/04/23 07:30:40;;;;;;;9.02;3.55;;;;;;;8.83;100.00;98232.94;7393074;19;20011;-83
2023/04/23 07:33:06;;;;;;;7.97;3.28;;;;;;;8.83;100.00;98232.94;7396372;19;20014;-83
2023/04/23 07:35:32;;;;;;;8.45;5.05;;;;;;;8.86;100.00;98237.47;7392134;19;20014;-83
2023/04/23 07:37:58;;;;;;;3.90;2.33;;;;;;;9.04;100.00;98234.22;7391340;19;20027;-83
2023/04/23 07:40:25;;;;;;;6.18;3.40;;;;;;;9.39;100.00;98236.47;7390087;19;20021;-84
2023/04/23 07:42:51;;;;;;;12.30;3.63;;;;;;;9.04;100.00;98237.00;7395619;19;20023;-83
2023/04/23 07:45:18;;;;;;;9.82;4.65;;;;;;;9.71;100.00;98234.16;7392870;19;20473;-83
2023/04/23 07:47:45;;;;;;;10.38;3.08;;;;;;;11.90;100.00;98231.75;7389687;19;20018;-83
2023/04/23 07:50:11;;;;;;;6.75;4.00;;;;;;;9.13;100.00;98242.31;7395192;19;20018;-84
2023/04/23 07:52:38;;;;;;;6.53;2.88;;;;;;;8.80;100.00;98245.03;7395553;19;20018;-84
2023/04/23 07:55:05;;;;;;;4.28;2.67;;;;;;;9.48;100.00;98241.00;7389613;19;20042;-84
2023/04/23 07:57:31;;;;;;;8.50;2.55;;;;;;;8.85;100.00;98244.31;7390999;19;20013;-84
2023/04/23 07:59:57;;;;;;;8.80;2.88;;;;;;;8.72;100.00;98252.34;7389438;19;20046;-84
2023/04/23 08:02:25;;;;;;;15.05;4.38;;;;;;;9.84;100.00;98251.81;7390385;19;20010;-83
2023/04/23 08:04:51;;;;;;;15.13;3.40;;;;;;;10.47;100.00;98246.28;7390174;19;20038;-84
2023/04/23 08:07:18;;;;;;;10.98;3.67;;;;;;;9.53;100.00;98259.72;7390681;19;20022;-84
2023/04/23 08:09:44;;;;;;;7.55;2.88;;;;;;;8.89;100.00;98257.91;7390486;19;20014;-84
2023/04/23 08:12:10;;;;;;;8.27;3.95;;;;;;;8.76;100.00;98252.88;7393733;19;20014;-84
2023/04/23 08:14:36;;;;;;;5.07;3.72;;;;;;;8.89;100.00;98261.47;7393034;19;20017;-84
2023/04/23 08:17:08;;;;;;;;;;;;;;;9.00;100.00;98253.16;7389599;19;20017;-84
2023/04/23 08:19:34;;;;;;;7.40;3.47;;;;;;;9.33;100.00;98263.50;7393018;19;19919;-84
2023/04/23 08:22:00;;;;;;;9.10;3.63;;;;;;;20.41;100.00;98248.03;7392032;19;20043;-85
2023/04/23 08:24:26;;;;;;;9.07;3.55;;;;;;;28.98;57.45;98243.56;7388571;19;20034;-84
2023/04/23 08:26:52;;;;;;;13.55;3.88;;;;;;;30.26;48.09;98239.50;7391213;19;20010;-84
2023/04/23 08:29:18;;;;;;;6.38;3.08;;;;;;;31.88;43.28;98238.97;7391442;19;20046;-85
2023/04/23 08:31:45;;;;;;;18.27;3.42;;;;;;;32.51;40.07;98236.94;7392399;19;20020;-85
2023/04/23 08:34:11;;;;;;;6.95;3.28;;;;;;;32.96;37.76;98242.09;7391000;19;20011;-85
2023/04/23 08:36:37;;;;;;;5.38;3.33;;;;;;;33.09;36.57;98238.22;7389639;19;20019;-85
2023/04/23 08:39:04;;;;;;;10.43;4.53;;;;;;;33.38;35.15;98234.03;7391471;19;20018;-84
2023/04/23 08:41:37;;;;;;;7.05;2.80;;;;;;;33.48;34.29;98225.72;7391015;19;20375;-84
2023/04/23 08:44:18;;;;;;;11.65;4.10;;;;;;;33.87;33.34;98227.59;7389398;19;20047;-84
2023/04/23 08:46:45;;;;;;;16.17;3.10;;;;;;;33.96;32.35;98227.16;7387058;19;20033;-84
2023/04/23 08:49:15;;;;;;;11.35;4.07;;;;;;;33.77;32.34;98225.16;7389848;19;20011;-85
2023/04/23 08:51:57;;;;;;;4.57;2.90;;;;;;;33.21;32.50;98238.59;7390075;19;20014;-85
2023/04/23 08:54:30;;;;;;;10.60;3.13;;;;;;;33.05;32.37;98235.16;7390246;19;20014;-85
2023/04/23 08:56:57;;;;;;;4.30;2.05;;;;;;;33.29;32.07;98238.09;7389013;19;20350;-86
2023/04/23 08:59:30;;;;;;;11.30;3.13;;;;;;;33.13;31.88;98231.81;7395365;19;20026;-86
2023/04/23 09:01:58;;;;;;;10.98;2.97;;;;;;;33.33;31.47;98220.91;7399763;19;20467;-86
2023/04/23 09:04:25;;;;;;;7.72;3.38;;;;;;;33.36;31.59;98228.22;7398501;19;20019;-87
2023/04/23 09:06:51;;;;;;;10.30;4.00;;;;;;;33.32;31.36;98225.19;7398936;19;20033;-88
2023/04/23 09:09:22;;;;;;;7.55;3.65;;;;;;;33.52;30.90;98231.63;7398269;19;20049;-87
2023/04/23 09:11:49;;;;;;;7.88;3.75;;;;;;;33.42;30.83;98234.91;7399071;19;20007;-87
2023/04/23 09:14:15;;;;;;;3.38;3.00;;;;;;;33.44;31.33;98234.25;7399851;19;20018;-87
2023/04/23 09:16:41;;;;;;;8.43;3.30;;;;;;;33.37;31.10;98235.47;7396339;19;20086;-87
2023/04/23 09:19:09;;;;;;;11.00;4.10;;;;;;;33.87;30.29;98242.06;7398348;19;20390;-87
2023/04/23 09:21:38;;;;;;;14.43;4.20;;;;;;;33.93;30.71;98237.19;7399357;19;20022;-87
2023/04/23 09:24:05;;;;;;;11.32;3.65;;;;;;;34.04;30.10;98246.91;7395521;19;20007;-86
2023/04/23 09:26:31;;;;;;;7.28;3.03;;;;;;;34.09;29.92;98245.63;7393154;19;20006;-86
2023/04/23 09:28:57;;;;;;;10.63;4.03;;;;;;;34.21;29.79;98245.94;7398779;19;20019;-87
2023/04/23 09:31:23;;;;;;;7.57;3.85;;;;;;;34.04;29.81;98259.22;7397408;19;20015;-87
2023/04/23 09:33:53;;;;;;;7.40;3.88;;;;;;;34.17;29.58;98252.34;7396924;19;20083;-88
2023/04/23 09:36:22;;;;;;;9.18;3.80;;;;;;;34.20;29.55;98253.88;7395326;19;20022;-88
2023/04/23 09:38:49;;;;;;;7.70;4.25;;;;;;;34.38;29.15;98252.88;7393908;19;20018;-87
2023/04/23 09:41:23;;;;;;;5.65;3.65;;;;;;;34.25;29.59;98261.25;7394661;19;20018;-86
2023/04/23 09:43:52;;;;;;;19.50;5.78;;;;;;;33.90;29.91;98258.75;7395205;19;20011;-86
2023/04/23 09:46:18;;;;;;;14.48;5.40;;;;;;;34.04;29.98;98261.34;7393774;19;20669;-87
2023/04/23 09:48:44;;;;;;;15.95;3.90;;;;;;;33.93;29.95;98268.97;7396359;19;20036;-87
2023/04/23 09:51:14;;;;;;;6.95;3.30;;;;;;;19.42;54.57;98290.53;7395391;19;20537;-85
2023/04/23 09:53:42;;;;;;;16.63;3.38;;;;;;;16.88;96.14;98290.91;7396753;19;20025;-86
2023/04/23 09:56:08;;;;;;;8.65;3.88;;;;;;;22.54;57.51;98286.84;7392783;19;20036;-87
2023/04/23 09:58:34;;;;;;;9.30;3.33;;;;;;;27.05;47.82;98274.06;7394798;19;20011;-86
2023/04/23 10:01:08;;;;;;;8.15;3.97;;;;;;;25.14;55.33;98277.41;7393610;19;20035;-89
2023/04/23 10:03:34;;;;;;;11.77;3.40;;;;;;;24.55;46.40;98277.72;7392857;19;20018;-88
2023/04/23 10:06:00;;;;;;;3.60;2.47;;;;;;;16.19;98.34;98286.22;7394932;19;20014;-89
2023/04/23 10:08:26;;;;;;;4.95;3.42;;;;;;;15.51;100.00;98291.28;7397134;19;20072;-87
2023/04/23 10:10:53;;;;;;;9.50;3.40;;;;;;;14.98;100.00;98291.50;7394767;19;20015;-88
2023/04/23 10:13:19;;;;;;;12.25;3.88;;;;;;;14.21;100.00;98293.06;7401166;19;20018;-86
2023/04/23 10:15:46;;;;;;;8.90;3.08;;;;;;;12.78;100.00;98299.69;7397668;19;20023;-89
2023/04/23 10:18:13;;;;;;;6.78;3.03;;;;;;;13.75;100.00;98296.47;7392727;19;20015;-87
2023/04/23 10:20:41;;;;;;;4.57;3.13;;;;;;;14.68;100.00;98296.75;7394029;19;20035;-86
2023/04/23 10:23:10;;;;;;;8.13;3.33;;;;;;;14.56;100.00;98292.63;7397547;19;20031;-85
2023/04/23 10:25:38;;;;;;;7.28;3.60;;;;;;;14.27;100.00;98299.31;7393048;19;20604;-86
2023/04/23 10:28:06;;;;;;;10.43;2.85;;;;;;;14.59;100.00;98304.81;7394362;19;20006;-86
2023/04/23 10:30:35;;;;;;;4.35;2.67;;;;;;;14.56;100.00;98305.88;7394637;19;20015;-87
2023/04/23 10:33:03;;;;;;;6.18;2.60;;;;;;;14.65;100.00;98309.03;7399513;19;20029;-86
2023/04/23 10:35:29;;;;;;;7.05;3.33;;;;;;;15.49;100.00;98299.50;7394916;19;20018;-86
2023/04/23 10:37:55;;;;;;;11.30;4.15;;;;;;;15.60;100.00;98300.00;7394748;19;20110;-86
2023/04/23 10:40:32;;;;;;;4.35;3.05;;;;;;;15.75;100.00;98302.19;7393893;19;20014;-88
2023/04/23 10:42:59;;;;;;;5.65;3.33;;;;;;;16.06;100.00;98303.94;7397962;19;20021;-88
2023/04/23 10:45:29;;;;;;;10.05;2.55;;;;;;;16.19;100.00;98303.84;7396009;19;20006;-86
2023/04/23 10:47:55;;;;;;;22.00;4.70;;;;;;;30.30;45.50;98277.03;7395932;19;20368;-88
2023/04/23 10:50:33;;;;;;;7.05;3.33;;;;;;;21.77;52.74;98295.13;7396412;19;20026;-86
2023/04/23 10:53:01;;;;;;;6.15;2.42;;;;;;;15.81;100.00;98302.78;7397343;19;20027;-87
2023/04/23 10:55:29;;;;;;;9.63;2.67;;;;;;;21.92;75.35;98302.66;7396561;19;20020;-83
2023/04/23 10:58:03;;;;;;;7.55;2.28;;;;;;;13.58;100.00;98310.72;7393695;19;20066;-87
2023/04/23 11:00:42;;;;;;;9.45;3.90;;;;;;;13.61;100.00;98316.00;7392583;19;20492;-89
2023/04/23 11:03:30;;;;;;;7.45;3.38;;;;;;;14.25;100.00;98313.09;7396663;19;20010;-88
2023/04/23 11:06:00;;;;;;;3.30;1.35;;;;;;;14.59;100.00;98311.19;7393310;19;20025;-90
2023/04/23 11:08:28;;;;;;;7.73;2.57;;;;;;;28.61;54.33;98291.88;7394997;19;20047;-90
2023/04/23 11:10:56;;;;;;;7.13;2.97;;;;;;;31.31;42.14;98296.44;7395499;19;20371;-94
2023/04/23 11:13:24;;;;;;;7.05;2.65;;;;;;;32.11;38.58;98301.78;7400077;19;20043;-91
2023/04/23 11:16:13;;;;;;;10.48;4.03;;;;;;;32.61;36.63;98289.22;7397318;19;20342;-92
2023/04/23 11:19:02;;;;;;;10.13;4.55;;;;;;;32.92;35.21;98297.47;7392471;19;20010;-91
2023/04/23 11:21:59;;;;;;;13.57;4.55;;;;;;;33.36;34.58;98294.59;7394133;19;20039;-91
2023/04/23 11:24:27;;;;;;;7.50;3.22;;;;;;;33.15;34.43;98295.38;7395918;19;20011;-91
2023/04/23 11:26:53;;;;;;;15.52;4.28;;;;;;;33.33;34.19;98302.44;7395928;19;20022;-92
2023/04/23 11:29:24;;;;;;;9.00;4.60;;;;;;;33.78;33.26;98304.63;7395388;19;20026;-90
2023/04/23 11:31:54;;;;;;;7.22;3.15;;;;;;;33.61;32.68;98303.38;7396801;19;20039;-91